• Join FlightAware (Why Join?)
  • Login
  • US Flag 
01:59AM EDT


 

Airport Tracker/Info


-or-


 

Live Flight TrackerFlight Track Log ✈ N682RW ✈ 01-May-2013 ✈ KHOU - KLGB

Flight Track Log - Related Links

Times and Time Zones

All times are in EDT time to prevent confusion due to time zone crossing. See the N682RW flight status page for this flight to view local times or setup timezone preferences in your user account.

Time Position Orientation Groundspeed Altitude Reporting Facility
EDT Latitude Longitude Course Direction KTS MPH feet Rate Location/Type
10:12PM 29.6772 -95.2431 North 205 236 1,500  Level Houston Center
10:13PM 29.7253 -95.2397 North 257 296 3,800 2,280 Climbing Houston Center
10:14PM 29.7389 -95.2797 291° West 263 303 4,900 1,980 Climbing Houston Center
10:14PM 29.7417 -95.3267 274° West 279 321 5,800 2,700 Climbing Houston Center
10:15PM 29.7531 -95.3675 288° West 281 323 7,700 3,000 Climbing Houston Center
10:16PM 29.7847 -95.4706 290° West 285 328 11,000 2,940 Climbing Houston Center
10:17PM 29.8058 -95.5769 283° West 337 388 13,700 2,820 Climbing Houston Center
10:18PM 29.8258 -95.6858 282° West 347 399 16,800 2,640 Climbing Houston Center
10:19PM 29.8319 -95.8003 274° West 362 417 19,100 2,220 Climbing Houston Center
10:20PM 29.8192 -95.9214 263° West 383 441 21,400 1,920 Climbing Houston Center
10:21PM 29.8106 -96.0397 265° West 386 444 23,100 1,260 Climbing Houston Center
10:22PM 29.8006 -96.1672 265° West 397 457 24,000 1,080 Climbing Houston Center
10:23PM 29.7900 -96.2958 265° West 404 465 25,400 1,320 Climbing Houston Center
10:24PM 29.7800 -96.4269 265° West 412 474 26,700 2,040 Climbing Houston Center
10:25PM 29.7675 -96.5878 265° West 421 484 29,600 2,340 Climbing Houston Center
10:26PM 29.7561 -96.7142 264° West 405 466 31,500 1,260 Climbing Houston Center
10:27PM 29.7464 -96.8394 265° West 398 458 32,200 600 Climbing Houston Center
10:28PM 29.7353 -96.9717 265° West 415 478 32,800 720 Climbing Houston Center
10:29PM 29.7242 -97.1081 265° West 430 495 33,700 1,020 Climbing Houston Center
10:30PM 29.7131 -97.2444 265° West 433 498 34,900 900 Climbing Houston Center
10:31PM 29.7000 -97.3783 264° West 425 489 35,600 540 Climbing Houston Center
10:32PM 29.6883 -97.5150 264° West 432 497 36,000 180 Climbing Houston Center
10:33PM 29.6772 -97.6517 265° West 431 496 36,000  Level Houston Center
10:34PM 29.6619 -97.8131 264° West 425 489 36,000  Level Houston Center
10:35PM 29.6492 -97.9494 264° West 424 488 36,000  Level Houston Center
10:36PM 29.6367 -98.0842 264° West 424 488 36,000  Level Houston Center
10:37PM 29.6025 -98.2153 253° West 430 495 36,000  Level Houston Center
10:38PM 29.5686 -98.3461 253° West 428 493 36,000  Level Houston Center
10:39PM 29.5353 -98.4769 254° West 437 503 36,000  Level Houston Center
10:40PM 29.4997 -98.6169 254° West 431 496 36,000  Level Houston Center
10:41PM 29.4633 -98.7614 254° West 436 502 36,000  Level Houston Center
10:42PM 29.4281 -98.8956 253° West 440 506 36,000  Level Houston Center
10:43PM 29.3919 -99.0306 253° West 443 510 36,000  Level Houston Center
10:44PM 29.3553 -99.1650 253° West 444 511 36,000  Level Houston Center
10:45PM 29.3183 -99.3008 253° West 447 514 36,000  Level Houston Center
10:46PM 29.2811 -99.4422 253° West 445 512 36,000  Level Houston Center
10:47PM 29.2456 -99.5786 253° West 447 514 36,000  Level Houston Center
10:48PM 29.2083 -99.7133 252° West 446 513 36,000  Level Houston Center
10:49PM 29.1728 -99.8464 253° West 442 509 36,000  Level Houston Center
10:50PM 29.1350 -99.9794 252° West 440 506 36,000  Level Houston Center
10:51PM 29.1158 -100.1147 261° West 433 498 36,000  Level Houston Center
10:52PM 29.1253 -100.2494 275° West 421 484 36,000  Level Houston Center
10:53PM 29.1717 -100.3744 293° West 435 501 36,000  Level Houston Center
10:54PM 29.2325 -100.4928 301° West 430 495 36,000  Level Houston Center
10:55PM 29.2892 -100.6175 298° West 439 505 36,000  Level Houston Center
10:56PM 29.3464 -100.7411 298° West 440 506 36,000  Level Houston Center
10:58PM 29.4047 -100.8664 298° West 444 511 36,000  Level Houston Center
10:59PM 29.4625 -100.9869 299° West 433 498 36,000  Level Houston Center
11:00PM 29.5183 -101.1072 298° West 426 490 36,000  Level Houston Center
11:01PM 29.5750 -101.2239 299° West 419 482 36,000  Level Houston Center
11:02PM 29.6308 -101.3419 299° West 420 483 36,000  Level Houston Center
11:03PM 29.6883 -101.4661 298° West 439 505 36,000  Level Houston Center
11:04PM 29.7592 -101.6178 298° West 447 514 36,000  Level Houston Center
11:05PM 29.8167 -101.7431 298° West 445 512 36,000  Level Houston Center
11:06PM 29.8764 -101.8703 298° West 449 517 36,000  Level Houston Center
11:07PM 29.9286 -101.9822 298° West 447 514 36,000 -60 Level Albuquerque Center
11:08PM 29.9867 -102.1058 298° West 442 509 35,900  Descending Albuquerque Center
11:09PM 30.0556 -102.2539 298° West 437 503 36,000  Climbing Albuquerque Center
11:10PM 30.1128 -102.3781 298° West 438 504 36,000  Level Albuquerque Center
11:11PM 30.1694 -102.5028 298° West 437 503 36,000  Level Albuquerque Center
11:12PM 30.2281 -102.6308 298° West 444 511 36,000  Level Albuquerque Center
11:13PM 30.2858 -102.7561 298° West 442 509 36,000  Level Albuquerque Center
11:14PM 30.3422 -102.8811 298° West 439 505 36,000  Level Albuquerque Center
11:15PM 30.4003 -103.0083 298° West 443 510 36,000  Level Albuquerque Center
11:16PM 30.4564 -103.1328 298° West 438 504 36,000  Level Albuquerque Center
11:17PM 30.5131 -103.2583 298° West 437 503 36,000  Level Albuquerque Center
11:18PM 30.5689 -103.3839 297° West 438 504 36,000  Level Albuquerque Center
11:19PM 30.6367 -103.5339 298° West 437 503 36,000  Level Albuquerque Center
11:20PM 30.6919 -103.6597 297° West 438 504 36,000  Level Albuquerque Center
11:21PM 30.7478 -103.7833 298° West 433 498 36,000  Level Albuquerque Center
11:22PM 30.7964 -103.8933 297° West 431 496 36,000  Level Albuquerque Center
11:23PM 30.8494 -104.0156 297° West 426 490 36,000  Level Albuquerque Center
11:24PM 30.9144 -104.1631 297° West 428 493 36,000  Level Albuquerque Center
11:25PM 30.9689 -104.2886 297° West 433 498 36,000  Level Albuquerque Center
11:26PM 31.0244 -104.4150 297° West 438 504 36,000  Level Albuquerque Center
11:27PM 31.0797 -104.5422 297° West 442 509 36,000  Level Albuquerque Center
11:28PM 31.1347 -104.6686 297° West 440 506 36,000  Level Albuquerque Center
11:29PM 31.1883 -104.7931 297° West 437 503 36,000  Level Albuquerque Center
11:30PM 31.2519 -104.9406 297° West 430 495 36,000  Level Albuquerque Center
11:31PM 31.3047 -105.0647 296° West 431 496 36,000  Level Albuquerque Center
11:32PM 31.3572 -105.1883 296° West 430 495 36,000  Level Albuquerque Center
11:33PM 31.4081 -105.3061 297° West 415 478 36,000  Level Albuquerque Center
11:34PM 31.4603 -105.4308 296° West 425 489 36,000  Level Albuquerque Center
11:35PM 31.5114 -105.5522 296° West 419 482 36,000  Level Albuquerque Center
11:36PM 31.5622 -105.6744 296° West 418 481 36,000  Level Albuquerque Center
11:37PM 31.6233 -105.8219 296° West 421 484 36,000  Level Albuquerque Center
11:38PM 31.6744 -105.9431 296° West 416 479 36,000  Level Albuquerque Center
11:39PM 31.7250 -106.0642 296° West 415 478 36,000  Level Albuquerque Center
11:40PM 31.7758 -106.1836 297° West 411 473 36,000  Level Albuquerque Center
11:41PM 31.8244 -106.3056 295° West 422 486 36,000  Level Albuquerque Center
11:42PM 31.8600 -106.4306 289° West 408 470 36,000  Level Albuquerque Center
11:44PM 31.8992 -106.5769 288° West 406 467 36,000  Level Albuquerque Center
11:45PM 31.9347 -106.7033 288° West 406 467 36,000  Level Albuquerque Center
11:46PM 31.9700 -106.8283 288° West 404 465 36,000  Level Albuquerque Center
11:47PM 32.0050 -106.9567 288° West 408 470 36,000  Level Albuquerque Center
11:48PM 32.0392 -107.0831 288° West 405 466 36,000  Level Albuquerque Center
11:49PM 32.0736 -107.2106 288° West 405 466 36,000  Level Albuquerque Center
11:50PM 32.1075 -107.3378 287° West 405 466 36,000  Level Albuquerque Center
11:51PM 32.1422 -107.4667 288° West 408 470 36,000  Level Albuquerque Center
11:52PM 32.1764 -107.5944 288° West 406 467 36,000  Level Albuquerque Center
11:53PM 32.2103 -107.7219 287° West 407 468 36,000  Level Albuquerque Center
11:54PM 32.2442 -107.8508 287° West 409 471 36,000  Level Albuquerque Center
11:55PM 32.2797 -107.9792 288° West 410 472 36,000  Level Albuquerque Center
11:56PM 32.3211 -108.1375 287° West 416 479 36,000  Level Albuquerque Center
11:57PM 32.3547 -108.2675 287° West 415 478 36,000  Level Albuquerque Center
11:58PM 32.3889 -108.3992 287° West 417 480 36,000  Level Albuquerque Center
11:59PM 32.4247 -108.5339 288° West 415 478 36,000  Level Albuquerque Center
12:00AM 32.4578 -108.6631 287° West 413 475 36,000  Level Albuquerque Center
12:01AM 32.4911 -108.7928 287° West 413 475 36,000  Level Albuquerque Center
12:02AM 32.5250 -108.9244 287° West 416 479 36,000  Level Albuquerque Center
12:03AM 32.5575 -109.0553 286° West 416 479 36,000  Level Albuquerque Center
12:04AM 32.5914 -109.1864 287° West 415 478 36,000  Level Albuquerque Center
12:05AM 32.6239 -109.3158 287° West 412 474 36,000  Level Albuquerque Center
12:06AM 32.6569 -109.4461 287° West 412 474 36,000  Level Albuquerque Center
12:07AM 32.6947 -109.6008 286° West 409 471 36,000  Level Albuquerque Center
12:08AM 32.7283 -109.7328 287° West 415 478 36,000  Level Albuquerque Center
12:09AM 32.7608 -109.8633 287° West 415 478 36,000  Level Albuquerque Center
12:10AM 32.7939 -109.9939 287° West 415 478 36,000  Level Albuquerque Center
12:11AM 32.8283 -110.1242 287° West 416 479 36,000  Level Albuquerque Center
12:12AM 32.8594 -110.2539 286° West 411 473 36,000  Level Albuquerque Center
12:13AM 32.8911 -110.3853 286° West 415 478 36,000  Level Albuquerque Center
12:14AM 32.9233 -110.5158 286° West 414 476 36,000  Level Albuquerque Center
12:15AM 32.9611 -110.6706 286° West 413 475 36,000  Level Albuquerque Center
12:16AM 32.9919 -110.8028 286° West 413 475 36,000  Level Albuquerque Center
12:17AM 33.0231 -110.9344 286° West 413 475 36,000  Level Albuquerque Center
12:18AM 33.0547 -111.0653 286° West 411 473 36,000  Level Albuquerque Center
12:19AM 33.0856 -111.1975 286° West 414 476 36,000  Level Albuquerque Center
12:20AM 33.1167 -111.3292 286° West 414 476 36,000  Level Albuquerque Center
12:21AM 33.1469 -111.4622 285° West 414 476 36,000  Level Albuquerque Center
12:22AM 33.1775 -111.5958 285° West 416 479 36,000  Level Albuquerque Center
12:23AM 33.2081 -111.7294 285° West 417 480 36,000  Level Albuquerque Center
12:24AM 33.2394 -111.8631 286° West 417 480 36,000  Level Albuquerque Center
12:25AM 33.2692 -111.9950 285° West 413 475 36,000  Level Albuquerque Center
12:26AM 33.2989 -112.1267 285° West 410 472 36,000  Level Albuquerque Center
12:27AM 33.3286 -112.2606 285° West 413 475 36,000  Level Albuquerque Center
12:28AM 33.3589 -112.3947 285° West 416 479 36,000  Level Albuquerque Center
12:29AM 33.3883 -112.5281 285° West 416 479 36,000  Level Albuquerque Center
12:30AM 33.4183 -112.6617 285° West 416 479 36,000  Level Albuquerque Center
12:31AM 33.4528 -112.8217 285° West 417 480 36,000  Level Albuquerque Center
12:32AM 33.4719 -112.9583 280° West 419 482 36,000  Level Albuquerque Center
12:33AM 33.4889 -113.0969 278° West 422 486 36,000 -360 Level Albuquerque Center
12:34AM 33.5061 -113.2319 279° West 417 480 35,300 -780 Descending Albuquerque Center
12:35AM 33.5239 -113.3683 279° West 416 479 34,500 -660 Descending Albuquerque Center
12:36AM 33.5411 -113.5061 279° West 419 482 34,000 -300 Descending Albuquerque Center
12:37AM 33.5578 -113.6428 278° West 417 480 34,000  Level Albuquerque Center
12:38AM 33.5747 -113.7792 279° West 416 479 34,000  Level Albuquerque Center
12:40AM 33.5919 -113.9183 278° West 422 486 34,000  Level Albuquerque Center
12:41AM 33.6092 -114.0639 278° West 422 486 34,000  Level Albuquerque Center
12:42AM 33.6264 -114.2028 279° West 422 486 34,000  Level Albuquerque Center
12:43AM 33.6425 -114.3353 278° West 423 487 34,000  Level Albuquerque Center
12:43AM 33.6564 -114.4536 278° West 426 490 34,000  Level Los Angeles Center
12:44AM 33.6728 -114.5939 278° West 426 490 34,000  Level Los Angeles Center
12:45AM 33.6892 -114.7347 278° West 428 493 34,000  Level Los Angeles Center
12:46AM 33.7047 -114.8761 278° West 428 493 34,000  Level Los Angeles Center
12:47AM 33.7219 -115.0167 278° West 428 493 34,000  Level Los Angeles Center
12:48AM 33.7361 -115.1581 277° West 428 493 34,000  Level Los Angeles Center
12:49AM 33.7544 -115.3267 277° West 426 490 34,000 -780 Level Los Angeles Center
12:50AM 33.7711 -115.4697 278° West 433 498 32,500 -1,680 Descending Los Angeles Center
12:51AM 33.7864 -115.6119 277° West 432 497 30,700 -1,740 Descending Los Angeles Center
12:52AM 33.8017 -115.7594 277° West 447 514 29,000 -2,040 Descending Los Angeles Center
12:53AM 33.8178 -115.9097 277° West 455 524 26,600 -1,980 Descending Los Angeles Center
12:54AM 33.8322 -116.0572 277° West 450 518 25,000 -1,560 Descending Los Angeles Center
12:56AM 33.8467 -116.1986 277° West 435 501 23,500 -2,160 Descending Los Angeles Center
12:57AM 33.8611 -116.3358 277° West 421 484 20,600 -3,000 Descending Los Angeles Center
12:58AM 33.8742 -116.4739 277° West 419 482 17,400 -2,880 Descending Los Angeles Center
12:59AM 33.8800 -116.6314 273° West 399 459 14,800 -1,680 Descending Los Angeles Center
01:00AM 33.8858 -116.7606 273° West 391 450 14,000 -420 Descending Los Angeles Center
01:01AM 33.8822 -116.8922 268° West 396 456 14,000  Level Los Angeles Center
01:02AM 33.8617 -117.0228 259° West 399 459 14,000 -720 Level Los Angeles Center
01:03AM 33.8439 -117.1442 260° West 393 452 12,600 -1,500 Descending Los Angeles Center
01:04AM 33.8272 -117.2656 261° West 373 429 11,000 -1,620 Descending Los Angeles Center
01:05AM 33.8092 -117.3881 260° West 309 356 9,300 -1,500 Descending Los Angeles Center
01:06AM 33.7958 -117.4731 259° West 268 308 8,000 -780 Descending Los Angeles Center
01:07AM 33.7856 -117.5528 261° West 245 282 7,800 -720 Descending Los Angeles Center
01:08AM 33.7783 -117.6342 264° West 245 282 6,600 -840 Descending Los Angeles Center
01:08AM 33.7667 -117.6667 247° West 236 272 6,700 60 Climbing Southern California TRACON
01:09AM 33.7500 -117.7333 253° West 239 275 6,700 -660 Level Southern California TRACON
01:10AM 33.7167 -117.8000 239° Southwest 247 284 5,400 -1,260 Descending Southern California TRACON
01:11AM 33.6833 -117.8833 244° Southwest 252 290 4,100 -660 Descending Southern California TRACON
01:12AM 33.6833 -117.9667 270° West 250 288 4,100 -180 Level Southern California TRACON
01:13AM 33.7000 -118.0167 292° West 188 216 3,800 -900 Descending Southern California TRACON
01:14AM 33.7500 -118.0667 320° Northwest 186 214 2,400 -1,260 Descending Southern California TRACON
01:15AM 33.7667 -118.1000 301° West 156 180 1,300 -1,020 Descending Southern California TRACON
01:16AM 33.7958 -118.1250 325° Northwest 159 183 500 -960 Descending Los Angeles Center
01:19AM 33.8167 -118.1500 292° West  Level FlightAware Approximate